Time;durP1;ratioP1;P1;durP2;ratioP2;P2;SDS_P1;SDS_P2;PMS_P1;PMS_P2;Temp;Humidity;BMP_temperature;BMP_pressure;BME280_temperature;BME280_humidity;BME280_pressure;Samples;Min_cycle;Max_cycle;Signal;HPM_P1;HPM_P2
2022/02/02 00:00:54;;;;;;;38.22;4.90;;;;;;;5.29;91.52;99175.75;5015277;28;20420;-60
2022/02/02 00:03:22;;;;;;;29.52;4.65;;;;;;;5.24;92.47;99180.91;5014243;28;20407;-59
2022/02/02 00:08:34;;;;;;;41.25;5.75;;;;;;;5.28;90.68;99163.47;5014681;28;20036;-60
2022/02/02 00:11:35;;;;;;;32.90;4.80;;;;;;;5.31;90.88;99157.75;5014560;28;20348;-60
2022/02/02 00:16:33;;;;;;;34.10;4.85;;;;;;;5.15;92.02;99155.56;5015185;28;20112;-59
2022/02/02 00:19:06;;;;;;;32.22;5.40;;;;;;;5.10;92.29;99158.84;5014475;28;20474;-60
2022/02/02 00:21:47;;;;;;;27.92;4.30;;;;;;;5.03;92.59;99154.56;5014542;28;20414;-58
2022/02/02 00:24:30;;;;;;;32.08;4.72;;;;;;;5.02;92.60;99145.78;5014865;28;20367;-59
2022/02/02 00:26:59;;;;;;;39.90;5.07;;;;;;;4.93;92.47;99139.88;5014614;28;20364;-59
2022/02/02 00:29:32;;;;;;;27.98;5.07;;;;;;;5.06;92.70;99151.50;5014264;28;20363;-59
2022/02/02 00:32:17;;;;;;;27.70;4.25;;;;;;;5.10;92.61;99142.09;5013120;28;20379;-59
2022/02/02 00:34:43;;;;;;;54.92;6.47;;;;;;;5.30;91.50;99145.50;5014252;28;20428;-58
2022/02/02 00:37:09;;;;;;;42.15;5.60;;;;;;;5.48;90.92;99154.63;5014222;28;20026;-58
2022/02/02 00:39:35;;;;;;;37.05;4.40;;;;;;;5.64;90.23;99148.81;5014169;28;20364;-60
2022/02/02 00:42:02;;;;;;;33.33;5.65;;;;;;;5.83;88.42;99149.75;5013941;28;20042;-59
2022/02/02 00:44:28;;;;;;;26.80;4.80;;;;;;;5.90;88.20;99133.75;5014180;28;20405;-59
2022/02/02 00:46:54;;;;;;;32.90;5.00;;;;;;;5.78;88.64;99153.03;5014029;28;20022;-59
2022/02/02 00:49:20;;;;;;;24.98;4.53;;;;;;;5.73;86.69;99160.03;5014212;28;20444;-58
2022/02/02 00:51:47;;;;;;;26.65;4.38;;;;;;;5.79;86.46;99149.38;5014178;28;20029;-59
2022/02/02 00:54:13;;;;;;;23.05;4.03;;;;;;;5.79;85.32;99146.72;5013779;28;20057;-59
2022/02/02 00:56:40;;;;;;;23.33;4.32;;;;;;;5.88;84.07;99157.09;5013445;28;20508;-59
2022/02/02 00:59:06;;;;;;;25.65;5.15;;;;;;;5.95;83.41;99160.56;5013838;28;20567;-59
2022/02/02 01:01:32;;;;;;;40.47;6.13;;;;;;;5.89;83.05;99154.22;5013812;28;20441;-58
2022/02/02 01:03:58;;;;;;;30.90;5.05;;;;;;;5.84;83.49;99160.19;5012593;28;20507;-59
2022/02/02 01:06:26;;;;;;;30.92;4.75;;;;;;;5.74;84.50;99151.00;5013730;28;20022;-58
2022/02/02 01:09:10;;;;;;;33.05;3.88;;;;;;;5.74;85.63;99157.16;5013692;28;20436;-59
2022/02/02 01:19:39;;;;;;;35.90;5.05;;;;;;;6.16;86.17;99168.19;5012566;28;20422;-60
2022/02/02 01:30:04;;;;;;;38.58;6.15;;;;;;;6.24;86.14;99205.22;5013210;28;20407;-59
2022/02/02 01:32:30;;;;;;;32.75;4.72;;;;;;;6.22;85.55;99215.25;5013878;28;20396;-60
2022/02/02 01:34:56;;;;;;;37.83;6.75;;;;;;;6.22;85.27;99222.44;5011947;28;20026;-60
2022/02/02 01:37:21;;;;;;;41.30;5.47;;;;;;;6.28;84.76;99220.75;5013261;28;20018;-59
2022/02/02 01:39:53;;;;;;;35.53;5.05;;;;;;;6.26;84.82;99211.13;5013219;28;20026;-59
2022/02/02 01:42:20;;;;;;;33.72;5.22;;;;;;;6.21;85.18;99205.63;5013305;28;20439;-60
2022/02/02 01:45:16;;;;;;;27.45;4.70;;;;;;;6.22;85.15;99201.94;5013438;28;20346;-59
2022/02/02 01:47:41;;;;;;;51.95;6.72;;;;;;;6.16;85.74;99213.44;5012996;28;20120;-59
2022/02/02 01:50:21;;;;;;;38.72;5.80;;;;;;;6.11;86.01;99220.44;5013216;28;20442;-60
2022/02/02 01:55:39;;;;;;;27.20;4.18;;;;;;;6.09;86.27;99228.66;5013599;28;20088;-60
2022/02/02 02:00:37;;;;;;;41.55;6.18;;;;;;;6.08;86.24;99221.66;5013406;28;20487;-60
2022/02/02 02:03:03;;;;;;;42.80;6.25;;;;;;;6.07;86.11;99222.72;5013284;28;20022;-60
2022/02/02 02:05:29;;;;;;;51.67;5.93;;;;;;;6.07;86.32;99224.56;5013634;28;20049;-60
2022/02/02 02:07:54;;;;;;;44.28;7.25;;;;;;;6.02;85.85;99222.53;5013110;28;20022;-60
2022/02/02 02:10:22;;;;;;;49.50;5.90;;;;;;;5.98;85.70;99210.69;5012985;28;20029;-60
2022/02/02 02:12:55;;;;;;;47.00;6.15;;;;;;;5.98;85.41;99210.69;5013082;28;20388;-60
2022/02/02 02:15:23;;;;;;;48.30;6.57;;;;;;;5.79;85.68;99210.53;5013506;28;20032;-60
2022/02/02 02:17:50;;;;;;;45.15;5.70;;;;;;;5.70;86.21;99214.47;5013012;28;20410;-60
2022/02/02 02:20:16;;;;;;;42.13;5.53;;;;;;;5.76;85.11;99200.31;5028791;28;20387;-60
2022/02/02 02:22:43;;;;;;;32.85;4.75;;;;;;;5.84;84.59;99199.25;5013070;28;20036;-60
2022/02/02 02:25:09;;;;;;;39.75;5.65;;;;;;;5.79;85.18;99202.56;5013329;28;20432;-60
2022/02/02 02:27:35;;;;;;;42.53;5.70;;;;;;;5.79;85.10;99210.53;5012929;28;20412;-60
2022/02/02 02:30:13;;;;;;;37.30;6.00;;;;;;;5.84;85.05;99207.22;5014843;28;20044;-60
2022/02/02 02:56:22;;;;;;;34.35;5.60;;;;;;;5.70;89.14;99245.56;5016340;28;20025;-60
2022/02/02 03:30:46;;;;;;;48.03;6.97;;;;;;;5.65;88.48;99254.16;5015433;28;20543;-60
2022/02/02 04:07:49;;;;;;;57.03;7.03;;;;;;;5.69;86.56;99262.53;5014867;28;20468;-60
2022/02/02 04:10:16;;;;;;;51.92;7.53;;;;;;;5.70;86.77;99257.00;5014781;28;20356;-60
2022/02/02 04:37:38;;;;;;;45.08;7.10;;;;;;;5.77;85.75;99265.78;5014325;28;20084;-58
2022/02/02 04:51:42;;;;;;;45.22;6.30;;;;;;;5.75;85.67;99281.13;5014263;28;20411;-58
2022/02/02 05:07:45;;;;;;;42.42;6.35;;;;;;;5.75;83.84;99290.97;5013888;28;20132;-60
2022/02/02 05:10:23;;;;;;;55.85;6.18;;;;;;;5.73;83.86;99296.47;5013649;28;20340;-60
2022/02/02 05:24:18;;;;;;;38.45;5.22;;;;;;;5.71;82.71;99271.13;5013501;28;20464;-59
2022/02/02 05:53:01;;;;;;;39.90;5.68;;;;;;;5.80;82.75;99315.09;5013300;28;20489;-61
2022/02/02 05:55:30;;;;;;;46.78;6.20;;;;;;;5.72;83.44;99313.47;5013182;28;20471;-60
2022/02/02 05:57:56;;;;;;;42.55;6.70;;;;;;;5.79;83.32;99319.59;5012042;28;20418;-58
2022/02/02 06:00:22;;;;;;;44.75;6.85;;;;;;;5.80;82.67;99320.41;5013151;28;20332;-60
2022/02/02 06:02:48;;;;;;;49.95;6.65;;;;;;;5.83;82.46;99314.66;5013837;28;20068;-61
2022/02/02 06:05:14;;;;;;;34.60;5.85;;;;;;;5.78;83.45;99328.56;5015890;28;20028;-59
2022/02/02 06:07:41;;;;;;;46.03;6.47;;;;;;;5.87;82.67;99302.59;5017058;28;20032;-59
2022/02/02 06:10:09;;;;;;;40.17;6.35;;;;;;;5.85;82.94;99341.88;5016726;28;20391;-61
2022/02/02 06:12:35;;;;;;;48.97;6.13;;;;;;;5.82;82.72;99334.31;5017172;28;20440;-59
2022/02/02 06:15:08;;;;;;;59.85;6.65;;;;;;;5.82;83.07;99356.41;5016839;28;20437;-59
2022/02/02 06:17:33;;;;;;;33.33;6.22;;;;;;;5.78;83.95;99352.53;5017096;28;20427;-59
2022/02/02 06:19:59;;;;;;;44.65;6.13;;;;;;;5.73;84.01;99352.31;5017042;28;20026;-59
2022/02/02 06:22:28;;;;;;;35.92;6.07;;;;;;;5.79;83.02;99356.00;5017011;28;20021;-59
2022/02/02 06:25:04;;;;;;;48.28;7.63;;;;;;;5.77;82.93;99363.38;5016066;28;20487;-59
2022/02/02 06:27:31;;;;;;;46.03;7.03;;;;;;;5.75;82.73;99374.22;5016624;28;20363;-59
2022/02/02 06:30:04;;;;;;;44.25;5.85;;;;;;;5.74;82.48;99377.06;5016572;28;20473;-59
2022/02/02 06:32:52;;;;;;;54.10;6.07;;;;;;;5.67;83.17;99373.63;5016444;28;20459;-59
2022/02/02 06:35:19;;;;;;;31.33;4.72;;;;;;;5.68;82.96;99369.94;5016480;28;20438;-58
2022/02/02 06:37:45;;;;;;;42.13;6.63;;;;;;;5.66;82.84;99364.00;5016379;28;20336;-60
2022/02/02 06:40:11;;;;;;;50.92;6.93;;;;;;;5.69;82.51;99369.75;5031594;28;20028;-59
2022/02/02 06:42:37;;;;;;;21.88;4.80;;;;;;;5.67;82.82;99378.94;5016029;28;20473;-61
2022/02/02 06:45:04;;;;;;;45.28;6.05;;;;;;;5.62;83.09;99396.34;5016536;28;20396;-58
2022/02/02 06:47:30;;;;;;;37.92;5.40;;;;;;;5.60;82.91;99401.03;5016244;28;20344;-61
2022/02/02 06:50:05;;;;;;;42.42;5.80;;;;;;;5.61;82.51;99391.22;5016433;28;20070;-61
2022/02/02 06:52:42;;;;;;;34.78;6.05;;;;;;;5.69;82.50;99385.69;5016202;28;20455;-61
2022/02/02 06:55:17;;;;;;;35.67;5.10;;;;;;;5.65;82.62;99400.41;5016530;28;20101;-60
2022/02/02 06:57:53;;;;;;;36.50;6.05;;;;;;;5.67;82.57;99411.66;5016087;28;20446;-59
2022/02/02 07:03:34;;;;;;;32.78;5.00;;;;;;;5.68;82.23;99402.66;4996886;28;20034;-60
2022/02/02 07:06:15;;;;;;;42.28;5.88;;;;;;;5.67;81.71;99400.22;5014917;28;20364;-60
2022/02/02 07:12:08;;;;;;;30.30;5.43;;;;;;;5.65;82.29;99413.72;4974821;28;20035;-60
2022/02/02 07:22:47;;;;;;;45.28;6.07;;;;;;;5.65;82.57;99429.66;5015587;28;20551;-59
2022/02/02 07:27:39;;;;;;;34.80;5.53;;;;;;;5.68;83.64;99439.88;5015981;28;20022;-61
2022/02/02 07:30:41;;;;;;;43.58;6.68;;;;;;;5.76;82.76;99439.66;5015420;28;20434;-61
2022/02/02 07:33:14;;;;;;;30.92;5.32;;;;;;;5.89;82.68;99440.69;5015810;28;20433;-59
2022/02/02 07:38:54;;;;;;;41.92;6.47;;;;;;;5.89;83.05;99441.53;5014022;28;20040;-59
2022/02/02 07:41:31;;;;;;;43.47;7.63;;;;;;;5.97;82.70;99449.31;5015354;28;20419;-60
2022/02/02 07:44:09;;;;;;;36.03;6.07;;;;;;;5.86;83.63;99451.75;5015561;28;20432;-60
2022/02/02 07:46:37;;;;;;;43.55;6.93;;;;;;;5.86;84.15;99463.19;5015495;28;20475;-60
2022/02/02 07:49:03;;;;;;;40.17;6.80;;;;;;;5.94;83.21;99457.72;5015048;28;20494;-60
2022/02/02 07:51:32;;;;;;;45.97;7.10;;;;;;;6.00;82.49;99458.72;5014224;28;20424;-60
2022/02/02 07:54:01;;;;;;;53.65;6.18;;;;;;;6.09;81.57;99449.50;5014948;28;20429;-61
2022/02/02 07:56:31;;;;;;;44.20;6.10;;;;;;;6.15;81.81;99461.16;5014976;28;20356;-60
2022/02/02 07:59:14;;;;;;;42.80;7.28;;;;;;;6.13;81.50;99457.88;4998543;28;20470;-60
2022/02/02 08:01:41;;;;;;;37.13;6.43;;;;;;;6.15;80.61;99458.50;5014949;28;20494;-60
2022/02/02 08:04:08;;;;;;;25.92;4.85;;;;;;;6.52;77.64;99472.94;5015157;28;20113;-60
2022/02/02 08:06:35;;;;;;;28.20;4.60;;;;;;;6.84;75.93;99475.66;5013846;28;20053;-60
2022/02/02 08:09:01;;;;;;;38.28;6.03;;;;;;;6.76;75.36;99467.91;5014905;28;20410;-59
2022/02/02 08:11:31;;;;;;;38.10;6.20;;;;;;;6.80;74.96;99479.81;5014865;28;20026;-61
2022/02/02 08:14:00;;;;;;;36.28;5.15;;;;;;;6.93;74.93;99481.59;5015037;28;20407;-60
2022/02/02 08:16:26;;;;;;;35.05;5.20;;;;;;;6.84;75.90;99486.31;5013841;28;20468;-60
2022/02/02 08:18:54;;;;;;;40.00;5.15;;;;;;;6.58;77.96;99474.75;5014540;28;20430;-60
2022/02/02 08:21:21;;;;;;;34.10;6.35;;;;;;;6.67;76.40;99483.34;5013830;28;20399;-60
2022/02/02 08:23:47;;;;;;;50.72;14.48;;;;;;;6.49;78.01;99473.38;5014860;28;20332;-60
2022/02/02 08:26:15;;;;;;;73.82;18.48;;;;;;;6.63;77.51;99479.44;5013025;28;20471;-60
2022/02/02 08:28:42;;;;;;;81.65;21.02;;;;;;;6.57;77.76;99475.78;5014092;28;20367;-61
2022/02/02 08:31:07;;;;;;;56.95;10.95;;;;;;;6.54;78.76;99489.53;5013101;28;20422;-60
2022/02/02 08:33:38;;;;;;;70.53;24.77;;;;;;;6.44;78.49;99494.44;5014613;28;20048;-59
2022/02/02 08:36:08;;;;;;;45.40;8.20;;;;;;;6.34;79.99;99492.25;5013226;28;20018;-59
2022/02/02 08:38:49;;;;;;;54.78;14.32;;;;;;;6.33;79.60;99503.91;5014616;28;20337;-59
2022/02/02 08:41:22;;;;;;;46.85;9.10;;;;;;;6.26;79.07;99506.59;5013176;28;20399;-59
2022/02/02 08:43:55;;;;;;;51.38;13.85;;;;;;;6.37;80.62;99512.31;5014027;28;20480;-61
2022/02/02 08:46:27;;;;;;;37.63;9.27;;;;;;;6.41;79.03;99508.19;5014713;28;20345;-59
2022/02/02 08:48:55;;;;;;;42.03;9.07;;;;;;;6.65;79.00;99496.84;5014427;28;20356;-59
2022/02/02 08:51:24;;;;;;;35.88;6.72;;;;;;;6.62;77.81;99499.13;5013285;28;20370;-59
2022/02/02 08:54:44;;;;;;;72.20;19.23;;;;;;;6.84;77.04;99507.63;5013942;28;20526;-60
2022/02/02 08:59:20;;;;;;;31.95;7.43;;;;;;;6.76;76.35;99507.88;5014122;28;20407;-59
2022/02/02 09:01:49;;;;;;;39.03;5.85;;;;;;;6.97;75.37;99512.94;5014086;28;20334;-59
2022/02/02 09:06:58;;;;;;;34.92;6.57;;;;;;;6.63;76.32;99528.22;5013998;28;20020;-59
2022/02/02 09:09:44;;;;;;;26.25;6.03;;;;;;;7.09;74.95;99537.91;5013581;28;20109;-59
2022/02/02 09:25:41;;;;;;;36.35;6.45;;;;;;;8.20;70.27;99597.13;5013692;28;20032;-59
2022/02/02 09:36:23;;;;;;;29.85;4.95;;;;;;;9.14;62.78;99592.53;5014025;28;20045;-61
2022/02/02 09:38:51;;;;;;;31.20;5.88;;;;;;;8.72;64.49;99611.06;5013940;28;20333;-60
2022/02/02 09:44:05;;;;;;;37.72;6.78;;;;;;;8.82;64.23;99614.03;5017887;28;20038;-61
2022/02/02 09:46:46;;;;;;;23.52;5.50;;;;;;;8.27;66.36;99619.25;5016354;28;20029;-60
2022/02/02 09:49:20;;;;;;;21.77;4.30;;;;;;;7.84;68.51;99622.63;5015969;28;20379;-61
2022/02/02 09:51:57;;;;;;;32.00;5.60;;;;;;;7.70;69.04;99621.88;5017501;28;20477;-61
2022/02/02 09:54:34;;;;;;;42.30;7.90;;;;;;;7.66;68.81;99611.84;5017810;28;20444;-60
2022/02/02 10:00:18;;;;;;;33.08;5.25;;;;;;;7.64;69.10;99619.25;5017314;28;20117;-59
2022/02/02 10:05:34;;;;;;;20.65;4.57;;;;;;;7.37;70.11;99614.06;5017448;28;20379;-60
2022/02/02 10:11:18;;;;;;;37.55;7.80;;;;;;;7.87;68.02;99613.38;5017070;28;20080;-60
2022/02/02 10:16:24;;;;;;;28.08;7.22;;;;;;;8.58;65.26;99604.22;5017290;28;20021;-60
2022/02/02 10:18:50;;;;;;;;;;;;;;;8.97;64.68;99612.88;5017848;28;20324;-60
2022/02/02 10:21:30;;;;;;;28.63;5.70;;;;;;;8.71;63.21;99617.47;5016476;28;19909;-60
2022/02/02 10:23:56;;;;;;;25.00;7.13;;;;;;;8.03;66.12;99623.53;5016291;28;20407;-60
2022/02/02 10:26:22;;;;;;;33.35;4.97;;;;;;;8.02;67.25;99631.75;5016714;28;20084;-61
2022/02/02 10:28:49;;;;;;;40.75;10.52;;;;;;;8.07;67.12;99639.94;5016983;28;20021;-60
2022/02/02 10:31:15;;;;;;;45.65;15.20;;;;;;;7.95;67.53;99631.81;5015657;28;20359;-59
2022/02/02 10:33:41;;;;;;;84.97;30.67;;;;;;;8.16;65.54;99630.63;5016592;28;20360;-59
2022/02/02 10:36:14;;;;;;;34.17;6.45;;;;;;;8.20;65.47;99624.63;5016843;28;20506;-60
2022/02/02 10:38:49;;;;;;;43.92;8.95;;;;;;;8.65;64.24;99621.00;4999978;28;20399;-60
2022/02/02 10:41:29;;;;;;;58.58;13.50;;;;;;;8.47;64.97;99629.78;5016519;28;20494;-59
2022/02/02 10:44:03;;;;;;;91.60;25.17;;;;;;;8.33;65.92;99626.38;5015032;28;20046;-60
2022/02/02 10:49:16;;;;;;;27.30;7.22;;;;;;;7.84;69.07;99641.31;5016340;28;20487;-60
2022/02/02 10:51:50;;;;;;;39.53;5.90;;;;;;;7.81;69.14;99641.72;5015819;28;20452;-60
2022/02/02 10:54:24;;;;;;;27.40;4.40;;;;;;;7.80;69.36;99634.75;5016179;28;20521;-60
2022/02/02 10:57:07;;;;;;;51.17;12.55;;;;;;;7.59;70.92;99637.75;5015140;28;20364;-60
2022/02/02 11:07:25;;;;;;;34.85;7.18;;;;;;;7.77;69.33;99648.53;5022929;28;20037;-60
2022/02/02 11:09:50;;;;;;;50.30;11.60;;;;;;;7.74;69.85;99662.31;5015881;28;20468;-60
2022/02/02 11:12:17;;;;;;;40.13;6.85;;;;;;;7.74;69.71;99652.44;5015810;28;20029;-60
2022/02/02 11:15:16;;;;;;;44.40;8.88;;;;;;;7.68;69.39;99655.16;5014716;28;20436;-60
2022/02/02 11:17:48;;;;;;;44.15;6.72;;;;;;;7.76;69.98;99660.22;5015806;28;20448;-60
2022/02/02 11:20:15;;;;;;;39.70;8.88;;;;;;;7.78;70.44;99663.50;5016075;28;20335;-62
2022/02/02 11:22:48;;;;;;;31.45;7.30;;;;;;;7.89;68.67;99662.03;4998147;28;20455;-60
2022/02/02 11:25:13;;;;;;;30.60;6.38;;;;;;;7.90;68.95;99666.31;5014404;28;20364;-60
2022/02/02 11:27:44;;;;;;;31.30;6.38;;;;;;;8.07;68.87;99671.97;5015664;28;20109;-60
2022/02/02 11:30:29;;;;;;;;;;;;;;;8.34;69.59;99662.75;5015833;28;20378;-60
2022/02/02 11:33:01;;;;;;;31.00;6.00;;;;;;;8.17;69.76;99667.78;5015373;28;20263;-59
2022/02/02 11:35:54;;;;;;;36.67;8.65;;;;;;;8.18;68.76;99671.28;5015475;28;20368;-60
2022/02/02 11:38:29;;;;;;;49.67;6.93;;;;;;;8.17;69.63;99678.47;5015860;28;20395;-61
2022/02/02 11:41:17;;;;;;;36.90;5.85;;;;;;;8.06;69.12;99673.00;5014160;28;20442;-61
2022/02/02 11:47:06;;;;;;;42.08;7.78;;;;;;;8.10;69.35;99682.22;5015375;28;20464;-59
2022/02/02 11:49:49;;;;;;;36.58;8.07;;;;;;;7.89;70.16;99667.38;5015491;28;20022;-59
2022/02/02 11:52:37;;;;;;;31.08;6.70;;;;;;;7.95;69.72;99680.66;5015145;28;20359;-58
2022/02/02 11:55:04;;;;;;;65.38;12.30;;;;;;;8.07;70.31;99683.47;5015059;28;20455;-59
2022/02/02 11:57:36;;;;;;;46.35;8.40;;;;;;;8.11;68.71;99689.19;5015544;28;20347;-59
2022/02/02 12:03:10;;;;;;;39.20;9.95;;;;;;;8.50;68.69;99671.28;5014255;28;20534;-60
2022/02/02 12:47:15;;;;;;;47.35;13.82;;;;;;;8.44;69.32;99694.34;5014190;28;20088;-60
2022/02/02 12:57:57;;;;;;;47.58;10.27;;;;;;;8.24;69.07;99704.31;5013265;28;20475;-60
2022/02/02 13:02:59;;;;;;;50.38;11.18;;;;;;;9.16;66.26;99697.41;5014074;28;20491;-61
2022/02/02 13:05:25;;;;;;;81.18;22.27;;;;;;;9.29;66.14;99699.94;5011874;28;20379;-60
2022/02/02 13:07:54;;;;;;;71.55;18.05;;;;;;;9.38;65.79;99695.09;5013984;28;20029;-61
2022/02/02 13:10:24;;;;;;;48.05;11.57;;;;;;;9.37;64.66;99687.31;5013257;28;20045;-61
2022/02/02 13:24:09;;;;;;;54.22;12.93;;;;;;;9.27;65.42;99685.97;5013866;28;20486;-60
2022/02/02 13:29:59;;;;;;;67.30;17.02;;;;;;;8.93;65.94;99683.84;5013539;28;20025;-60
2022/02/02 13:32:38;;;;;;;34.17;7.90;;;;;;;9.23;65.07;99691.97;5028968;28;20379;-64
2022/02/02 13:35:19;;;;;;;28.75;7.40;;;;;;;9.32;64.35;99689.84;5011227;28;20443;-60
2022/02/02 13:37:53;;;;;;;26.77;8.68;;;;;;;9.19;64.56;99698.84;5013036;28;20026;-60
2022/02/02 13:43:51;;;;;;;25.88;5.78;;;;;;;9.04;64.90;99704.53;5013399;28;20049;-59
2022/02/02 13:49:17;;;;;;;28.27;5.43;;;;;;;9.49;63.44;99712.28;5013571;28;20464;-60
2022/02/02 13:54:43;;;;;;;40.15;6.28;;;;;;;9.61;63.28;99710.50;5013777;28;20032;-60
2022/02/02 14:00:33;;;;;;;34.30;5.70;;;;;;;9.57;63.85;99720.00;5004917;28;20057;-61
2022/02/02 14:33:21;;;;;;;35.88;6.25;;;;;;;8.13;68.56;99745.88;5016785;28;20438;-61
2022/02/02 14:35:48;;;;;;;31.38;6.20;;;;;;;8.09;69.11;99744.66;5016592;28;20460;-61
2022/02/02 14:38:15;;;;;;;26.38;5.45;;;;;;;8.02;69.85;99751.91;5016637;28;20456;-60
2022/02/02 14:43:35;;;;;;;22.70;5.25;;;;;;;7.90;69.58;99762.41;5016303;28;20534;-60
2022/02/02 14:46:03;;;;;;;45.15;5.80;;;;;;;7.94;70.85;99764.44;5015674;28;20420;-60
2022/02/02 14:48:36;;;;;;;31.77;5.90;;;;;;;7.96;70.06;99765.06;5015266;28;20360;-60
2022/02/02 14:51:16;;;;;;;34.08;6.55;;;;;;;7.89;71.24;99760.78;5015275;28;20368;-60
2022/02/02 14:53:53;;;;;;;24.92;4.53;;;;;;;7.71;71.82;99753.44;5016721;28;20403;-60
2022/02/02 15:16:53;;;;;;;19.13;5.25;;;;;;;8.36;70.86;99786.22;5016258;28;20025;-60
2022/02/02 15:28:48;;;;;;;23.67;7.22;;;;;;;8.40;72.48;99778.63;5015798;28;20018;-59
2022/02/02 15:31:14;;;;;;;73.85;24.92;;;;;;;8.29;72.00;99789.97;5013312;28;20345;-59
2022/02/02 15:33:41;;;;;;;28.58;6.95;;;;;;;8.16;73.03;99798.84;5015393;28;20515;-59
2022/02/02 15:38:40;;;;;;;27.05;6.80;;;;;;;7.81;74.20;99801.84;5015505;28;20418;-59
2022/02/02 15:41:14;;;;;;;25.33;6.55;;;;;;;7.74;73.25;99807.22;5013983;28;20034;-59
2022/02/02 15:43:54;;;;;;;39.78;6.78;;;;;;;7.77;73.61;99811.31;5014290;28;20107;-59
2022/02/02 15:58:08;;;;;;;28.08;6.18;;;;;;;7.20;72.70;99807.50;5014606;28;20456;-59
2022/02/02 16:05:15;;;;;;;22.98;6.38;;;;;;;7.16;73.36;99812.41;5013888;28;20547;-59
2022/02/02 16:07:41;;;;;;;29.30;5.97;;;;;;;7.09;74.27;99812.44;5014970;28;20375;-59
2022/02/02 16:10:14;;;;;;;34.38;6.40;;;;;;;6.97;75.19;99815.94;5014004;28;20282;-60
2022/02/02 16:12:45;;;;;;;39.65;7.13;;;;;;;6.91;75.66;99817.53;5014886;28;20460;-59
2022/02/02 16:36:46;;;;;;;39.60;9.85;;;;;;;6.40;79.22;99826.06;5005517;28;20169;-60
2022/02/02 16:39:22;;;;;;;47.78;13.27;;;;;;;6.44;78.93;99829.97;5012471;28;20506;-60
2022/02/02 16:44:32;;;;;;;44.92;9.85;;;;;;;6.47;79.31;99834.91;5013357;28;20083;-59
2022/02/02 16:46:58;;;;;;;39.78;9.90;;;;;;;6.50;79.28;99836.34;5014177;28;20022;-59
2022/02/02 16:49:25;;;;;;;43.83;9.70;;;;;;;6.53;79.58;99842.06;5014113;28;20026;-60
2022/02/02 16:51:51;;;;;;;31.45;9.75;;;;;;;6.56;79.80;99841.66;5014361;28;20340;-61
2022/02/02 16:54:24;;;;;;;37.53;8.88;;;;;;;6.63;79.83;99836.38;5014269;28;20438;-61
2022/02/02 17:30:26;;;;;;;41.25;14.63;;;;;;;6.86;81.78;99842.16;5014126;28;20029;-60
2022/02/02 17:33:09;;;;;;;33.90;9.77;;;;;;;6.90;80.40;99842.56;5012856;28;20447;-60
2022/02/02 17:36:03;;;;;;;39.42;8.05;;;;;;;6.95;79.98;99844.63;5014561;28;20448;-60
2022/02/02 17:44:23;;;;;;;30.90;8.75;;;;;;;6.73;81.96;99849.31;4995836;28;20038;-61
2022/02/02 18:01:18;;;;;;;34.45;11.85;;;;;;;6.70;81.70;99858.50;5014548;28;20025;-60
2022/02/02 18:16:41;;;;;;;33.65;10.90;;;;;;;6.76;82.43;99856.88;5017119;28;20527;-60
2022/02/02 18:19:02;;;;;;;27.33;8.23;;;;;;;6.70;82.84;99867.31;5017030;28;20032;-59
2022/02/02 18:21:30;;;;;;;37.90;8.80;;;;;;;6.63;83.18;99868.31;5017418;28;20364;-59
2022/02/02 18:26:36;;;;;;;32.28;12.32;;;;;;;6.61;83.71;99865.84;5017134;28;20028;-59
2022/02/02 18:31:47;;;;;;;33.78;8.85;;;;;;;6.51;84.51;99878.72;5016770;28;20471;-59
2022/02/02 18:40:38;;;;;;;46.55;16.45;;;;;;;6.47;85.10;99874.84;5016969;28;20025;-60
2022/02/02 18:48:11;;;;;;;41.28;11.10;;;;;;;6.54;85.40;99888.16;4994248;28;20029;-60
2022/02/02 18:51:09;;;;;;;49.08;18.70;;;;;;;6.56;85.48;99899.44;5001947;28;20440;-61
2022/02/02 18:53:58;;;;;;;36.83;20.23;;;;;;;6.52;85.95;99904.38;5016431;28;20418;-62
2022/02/02 18:56:47;;;;;;;67.40;33.55;;;;;;;6.57;85.67;99901.09;5016372;28;20367;-60
2022/02/02 19:01:59;;;;;;;34.47;11.32;;;;;;;6.51;86.35;99907.22;5016347;28;20479;-60
2022/02/02 19:04:51;;;;;;;35.88;10.20;;;;;;;6.50;86.40;99916.25;5016238;28;20367;-60
2022/02/02 19:31:43;;;;;;;26.75;8.05;;;;;;;6.57;86.92;99896.59;5014524;28;20037;-61
2022/02/02 19:46:04;;;;;;;25.80;8.00;;;;;;;6.63;87.32;99895.78;5015620;28;20029;-61
2022/02/02 19:56:26;;;;;;;32.95;11.55;;;;;;;6.39;90.74;99883.00;5015432;28;20080;-61
2022/02/02 20:09:58;;;;;;;32.75;13.43;;;;;;;6.29;94.22;99906.50;5013933;28;20435;-60
2022/02/02 20:12:31;;;;;;;27.40;13.55;;;;;;;6.28;94.27;99904.88;5014846;28;20371;-60
2022/02/02 20:14:57;;;;;;;40.25;12.52;;;;;;;6.28;94.29;99912.84;5014912;28;20387;-60
2022/02/02 20:17:25;;;;;;;36.13;15.27;;;;;;;6.31;94.26;99902.63;5014674;28;20345;-60
2022/02/02 20:20:00;;;;;;;41.80;18.73;;;;;;;6.31;93.64;99899.16;5014770;28;20060;-59
2022/02/02 20:22:28;;;;;;;25.42;10.13;;;;;;;6.28;93.87;99904.88;5013528;28;20534;-59
2022/02/02 20:25:00;;;;;;;29.38;11.88;;;;;;;6.31;93.64;99901.81;5014590;28;20491;-59
2022/02/02 20:27:28;;;;;;;29.50;18.48;;;;;;;6.32;93.63;99895.47;5014966;28;20356;-59
2022/02/02 20:29:54;;;;;;;24.45;10.27;;;;;;;6.25;93.29;99893.59;5013263;28;20482;-59
2022/02/02 20:32:21;;;;;;;25.10;9.57;;;;;;;6.34;92.85;99906.72;5013333;28;20030;-59
2022/02/02 20:34:53;;;;;;;21.38;10.25;;;;;;;6.34;92.71;99901.41;5015340;28;20420;-60
2022/02/02 20:37:21;;;;;;;22.30;7.60;;;;;;;6.38;92.14;99902.66;5013778;28;20111;-60
2022/02/02 20:39:54;;;;;;;20.67;8.52;;;;;;;6.39;92.13;99909.63;5014408;28;20367;-61
2022/02/02 20:42:29;;;;;;;18.60;8.10;;;;;;;6.41;91.91;99912.91;5014211;28;20476;-61
2022/02/02 21:04:20;;;;;;;18.42;8.07;;;;;;;6.44;91.74;99917.84;5014066;28;20472;-61
2022/02/02 21:07:37;;;;;;;18.55;8.75;;;;;;;6.47;92.06;99922.78;4999716;28;20347;-60
2022/02/02 21:14:44;;;;;;;15.88;7.65;;;;;;;6.47;92.22;99928.09;5013896;28;20456;-60
2022/02/02 21:17:22;;;;;;;17.52;10.38;;;;;;;6.47;91.75;99922.78;5013882;28;20480;-61
2022/02/02 21:22:17;;;;;;;20.80;8.10;;;;;;;6.44;92.31;99929.34;5013750;28;20347;-60
2022/02/02 21:24:50;;;;;;;14.57;7.13;;;;;;;6.45;91.95;99927.47;5013678;28;20399;-60
2022/02/02 21:27:22;;;;;;;27.15;8.52;;;;;;;6.40;92.58;99925.41;5013739;28;20529;-60
2022/02/02 21:29:48;;;;;;;18.02;7.50;;;;;;;6.42;92.66;99925.22;5013862;28;20368;-60
2022/02/02 21:32:15;;;;;;;17.33;8.00;;;;;;;6.42;92.38;99920.72;5013897;28;20426;-60
2022/02/02 21:34:41;;;;;;;19.08;7.60;;;;;;;6.42;92.30;99930.53;5013465;28;20387;-60
2022/02/02 21:37:07;;;;;;;13.60;7.20;;;;;;;6.37;92.68;99923.16;5012344;28;20024;-60
2022/02/02 21:42:55;;;;;;;16.75;7.95;;;;;;;6.36;93.21;99932.13;5012323;28;20185;-60
2022/02/02 21:45:21;;;;;;;19.95;8.32;;;;;;;6.36;93.77;99941.97;5013500;28;20531;-59
2022/02/02 21:47:47;;;;;;;23.05;9.80;;;;;;;6.33;94.03;99945.03;5013490;28;20368;-61
2022/02/02 21:50:16;;;;;;;25.52;11.82;;;;;;;6.27;94.84;99938.66;5013398;28;20029;-60
2022/02/02 21:52:43;;;;;;;18.95;9.40;;;;;;;6.24;95.47;99945.22;5013714;28;20340;-59
2022/02/02 21:55:09;;;;;;;17.80;8.55;;;;;;;6.26;95.62;99937.00;5013870;28;20419;-59
2022/02/02 21:57:34;;;;;;;15.15;8.02;;;;;;;6.21;95.95;99942.91;5013466;28;20022;-60
2022/02/02 22:00:01;;;;;;;13.85;7.32;;;;;;;6.18;96.41;99943.31;5013584;28;20030;-59
2022/02/02 22:02:32;;;;;;;15.73;7.05;;;;;;;6.19;96.72;99936.16;5013307;28;20401;-60
2022/02/02 22:04:58;;;;;;;16.30;8.43;;;;;;;6.19;97.27;99936.16;5013342;28;20407;-60
2022/02/02 22:07:24;;;;;;;16.13;8.02;;;;;;;6.09;97.73;99938.34;5013565;28;20411;-60
2022/02/02 22:09:55;;;;;;;16.48;8.35;;;;;;;6.15;98.25;99929.59;5013441;28;20038;-60
2022/02/02 22:12:20;;;;;;;16.45;8.85;;;;;;;6.09;98.27;99931.19;5013173;28;20494;-60
2022/02/02 22:14:47;;;;;;;22.95;8.55;;;;;;;6.07;98.82;99927.09;5013269;28;20026;-60
2022/02/02 22:17:13;;;;;;;15.68;7.85;;;;;;;6.10;98.86;99921.38;5013452;28;20359;-60
2022/02/02 22:19:39;;;;;;;20.63;8.55;;;;;;;6.08;99.00;99912.75;5013106;28;20030;-60
2022/02/02 22:22:04;;;;;;;15.05;8.00;;;;;;;6.06;99.00;99926.25;5014047;28;20045;-59
2022/02/02 22:24:35;;;;;;;16.85;8.48;;;;;;;6.04;99.71;99922.94;5012973;28;20030;-60
2022/02/02 22:27:00;;;;;;;18.35;8.30;;;;;;;6.08;99.36;99920.75;5011954;28;20100;-60
2022/02/02 22:29:26;;;;;;;16.50;8.48;;;;;;;6.12;99.24;99925.47;5013175;28;20036;-60